createdAt,value
2023-03-19T00:03:13.567Z,99291.53
2023-03-19T00:09:15.546Z,99297.48
2023-03-19T00:15:17.310Z,99297.23
2023-03-19T00:21:19.075Z,99297.16
2023-03-19T00:27:20.928Z,99301.59
2023-03-19T00:33:22.513Z,99302.98
2023-03-19T00:39:24.091Z,99311.67
2023-03-19T00:45:25.701Z,99309.23
2023-03-19T00:51:27.211Z,99302.73
2023-03-19T00:57:29.709Z,99296.64
2023-03-19T01:03:31.309Z,99295.21
2023-03-19T01:09:32.935Z,99289.23
2023-03-19T01:15:42.145Z,99283.95
2023-03-19T01:21:45.618Z,99292.67
2023-03-19T01:27:50.717Z,99294.56
2023-03-19T01:33:52.210Z,99288.40
2023-03-19T01:40:15.445Z,99287.15
2023-03-19T01:46:36.313Z,99288.33
2023-03-19T01:52:57.222Z,99286.21
2023-03-19T01:59:12.086Z,99289.38
2023-03-19T02:05:28.979Z,99289.73
2023-03-19T02:11:34.836Z,99293.86
2023-03-19T02:17:38.923Z,99292.48
2023-03-19T02:24:07.142Z,99291.55
2023-03-19T02:30:35.515Z,99291.22
2023-03-19T02:36:45.394Z,99294.58
2023-03-19T02:42:46.936Z,99303.35
2023-03-19T02:48:54.485Z,99300.34
2023-03-19T02:54:56.085Z,99308.59
2023-03-19T03:00:59.554Z,99310.23
2023-03-19T03:07:01.736Z,99314.19
2023-03-19T03:13:04.919Z,99316.04
2023-03-19T03:19:06.549Z,99317.19
2023-03-19T03:25:11.805Z,99317.70
2023-03-19T03:31:13.793Z,99313.33
2023-03-19T03:37:16.586Z,99314.92
2023-03-19T03:43:20.171Z,99322.25
2023-03-19T03:49:22.540Z,99325.83
2023-03-19T03:55:27.592Z,99331.33
2023-03-19T04:01:34.656Z,99339.77
2023-03-19T04:07:39.696Z,99334.25
2023-03-19T04:13:44.014Z,99337.88
2023-03-19T04:19:45.484Z,99332.77
2023-03-19T04:25:57.892Z,99333.98
2023-03-19T04:32:05.601Z,99327.44
2023-03-19T04:38:08.307Z,99326.52
2023-03-19T04:44:12.991Z,99326.41
2023-03-19T04:50:15.607Z,99320.42
2023-03-19T04:56:18.130Z,99323.47
2023-03-19T05:02:21.322Z,99331.27
2023-03-19T05:08:24.876Z,99328.52
2023-03-19T05:14:26.424Z,99323.08
2023-03-19T05:20:38.071Z,99322.73
2023-03-19T05:26:43.053Z,99321.83
2023-03-19T05:33:00.026Z,99324.42
2023-03-19T05:39:14.587Z,99320.06
2023-03-19T05:45:18.918Z,99321.86
2023-03-19T05:51:24.905Z,99320.11
2023-03-19T05:57:26.740Z,99315.45
2023-03-19T06:03:34.633Z,99315.60
2023-03-19T06:09:41.258Z,99318.70
2023-03-19T06:15:42.872Z,99321.70
2023-03-19T06:21:44.602Z,99322.20
2023-03-19T06:27:46.250Z,99323.48
2023-03-19T06:33:55.832Z,99329.73
2023-03-19T06:39:59.914Z,99335.98
2023-03-19T06:46:04.263Z,99339.48
2023-03-19T06:52:06.343Z,99345.15
2023-03-19T06:58:08.010Z,99342.27
2023-03-19T07:04:10.701Z,99341.36
2023-03-19T07:10:13.138Z,99336.72
2023-03-19T07:16:15.593Z,99336.44
2023-03-19T07:22:17.635Z,99333.17
2023-03-19T07:28:20.062Z,99334.21
2023-03-19T07:34:22.484Z,99336.27
2023-03-19T07:40:25.206Z,99329.55
2023-03-19T07:46:27.682Z,99332.38
2023-03-19T07:52:29.601Z,99333.46
2023-03-19T07:58:31.122Z,99330.31
2023-03-19T08:04:33.155Z,99318.14
2023-03-19T08:10:37.457Z,99313.30
2023-03-19T08:16:40.103Z,99310.17
2023-03-19T08:22:42.429Z,99297.05
2023-03-19T08:28:44.519Z,99301.00
2023-03-19T08:34:49.013Z,99296.60
2023-03-19T08:40:50.999Z,99292.59
2023-03-19T08:46:52.680Z,99288.48
2023-03-19T08:52:55.342Z,99292.27
2023-03-19T08:58:57.337Z,99295.80
2023-03-19T09:04:59.346Z,99291.70
2023-03-19T09:11:01.433Z,99297.41
2023-03-19T09:17:04.111Z,99298.07
2023-03-19T09:23:05.872Z,99288.02
2023-03-19T09:29:08.604Z,99284.05
2023-03-19T09:35:10.223Z,99279.81
2023-03-19T09:41:22.341Z,99276.49
2023-03-19T09:47:28.231Z,99266.54
2023-03-19T09:53:39.151Z,99259.15
2023-03-19T09:59:40.762Z,99252.94
2023-03-19T10:06:20.540Z,99252.98
2023-03-19T10:12:26.144Z,99248.52
2023-03-19T10:18:35.502Z,99247.84
2023-03-19T10:24:40.077Z,99242.52
2023-03-19T10:30:44.580Z,99235.55
2023-03-19T10:36:46.301Z,99232.11
2023-03-19T10:43:14.412Z,99225.55
2023-03-19T10:49:16.241Z,99213.61
2023-03-19T10:55:23.788Z,99202.25
2023-03-19T11:01:35.770Z,99197.58
2023-03-19T11:07:37.741Z,99192.46
2023-03-19T11:13:39.514Z,99181.36
2023-03-19T11:19:42.443Z,99187.13
2023-03-19T11:25:55.342Z,99180.12
2023-03-19T11:32:25.835Z,99172.75
2023-03-19T11:38:35.692Z,99158.92
2023-03-19T11:45:02.383Z,99159.65
2023-03-19T11:51:16.663Z,99148.23
2023-03-19T11:57:27.824Z,99131.23
2023-03-19T12:03:44.646Z,99132.13
2023-03-19T12:09:55.272Z,99131.29
2023-03-19T12:16:16.417Z,99121.61
2023-03-19T12:22:49.952Z,99122.48
2023-03-19T12:29:05.961Z,99115.57
2023-03-19T12:35:15.741Z,99104.77
2023-03-19T12:41:21.524Z,99088.23
2023-03-19T12:47:31.918Z,99084.23
2023-03-19T12:53:50.080Z,99079.52
2023-03-19T13:00:00.138Z,99073.63
2023-03-19T13:06:08.594Z,99066.32
2023-03-19T13:12:13.314Z,99065.95
2023-03-19T13:18:45.687Z,99060.30
2023-03-19T13:24:48.304Z,99052.66
2023-03-19T13:31:04.587Z,99047.77
2023-03-19T13:37:12.574Z,99043.95
2023-03-19T13:43:37.398Z,99033.54
2023-03-19T13:50:04.536Z,99033.36
2023-03-19T13:56:26.562Z,99028.35
2023-03-19T14:02:30.734Z,99027.80
2023-03-19T14:08:43.001Z,99027.37
2023-03-19T14:14:47.281Z,99022.86
2023-03-19T14:21:01.505Z,99019.79
2023-03-19T14:27:16.708Z,99018.44
2023-03-19T14:33:41.268Z,99023.16
2023-03-19T14:39:43.554Z,99027.15
2023-03-19T14:46:03.416Z,99030.16
2023-03-19T14:52:15.146Z,99025.66
2023-03-19T14:58:23.592Z,99025.28
2023-03-19T15:04:27.993Z,99026.03
2023-03-19T15:10:38.085Z,99027.06
2023-03-19T15:16:55.486Z,99024.02
2023-03-19T15:23:00.563Z,99024.50
2023-03-19T15:29:04.426Z,99015.26
2023-03-19T15:35:10.419Z,99010.71
2023-03-19T15:41:41.297Z,99016.17
2023-03-19T15:48:13.592Z,99025.54
2023-03-19T15:54:15.700Z,99035.15
2023-03-19T16:00:17.954Z,99037.04
2023-03-19T16:06:29.716Z,99035.55
2023-03-19T16:12:39.179Z,99041.40
2023-03-19T16:18:44.902Z,99044.66
2023-03-19T16:24:47.617Z,99046.33
2023-03-19T16:30:50.140Z,99050.67
2023-03-19T16:36:51.990Z,99061.91
2023-03-19T16:42:55.401Z,99063.36
2023-03-19T16:48:57.112Z,99060.16
2023-03-19T16:54:59.412Z,99057.34
2023-03-19T17:01:02.426Z,99070.30
2023-03-19T17:07:03.950Z,99074.02
2023-03-19T17:13:07.408Z,99085.91
2023-03-19T17:19:15.537Z,99085.87
2023-03-19T17:25:20.228Z,99089.24
2023-03-19T17:31:30.590Z,99089.63
2023-03-19T17:37:32.295Z,99083.65
2023-03-19T17:43:33.970Z,99088.15
2023-03-19T17:49:35.500Z,99093.64
2023-03-19T17:55:37.029Z,99094.70
2023-03-19T18:01:42.390Z,99098.39
2023-03-19T18:07:46.988Z,99097.17
2023-03-19T18:13:48.817Z,99097.61
2023-03-19T18:19:51.752Z,99103.45
2023-03-19T18:25:53.516Z,99108.02
2023-03-19T18:32:03.327Z,99104.86
2023-03-19T18:38:35.217Z,99114.88
2023-03-19T18:45:29.145Z,99118.77
2023-03-19T18:52:00.678Z,99119.52
2023-03-19T18:58:04.031Z,99126.70
2023-03-19T19:04:06.395Z,99123.03
2023-03-19T19:10:11.092Z,99115.54
2023-03-19T19:16:20.498Z,99117.39
2023-03-19T19:22:22.557Z,99122.42
2023-03-19T19:28:27.263Z,99121.83
2023-03-19T19:34:29.304Z,99123.11
2023-03-19T19:40:31.148Z,99125.48
2023-03-19T19:46:34.103Z,99127.39
2023-03-19T19:52:37.041Z,99126.13
2023-03-19T19:58:40.187Z,99135.35
2023-03-19T20:04:41.790Z,99136.04
2023-03-19T20:10:43.831Z,99135.48
2023-03-19T20:16:46.640Z,99138.38
2023-03-19T20:22:49.386Z,99138.61
2023-03-19T20:28:51.695Z,99133.38
2023-03-19T20:34:54.513Z,99135.77
2023-03-19T20:40:56.966Z,99137.16
2023-03-19T20:46:58.530Z,99140.23
2023-03-19T20:53:03.021Z,99138.31
2023-03-19T21:00:22.416Z,99132.57
2023-03-19T21:07:53.187Z,99135.48
2023-03-19T21:13:55.052Z,99135.65
2023-03-19T21:19:56.882Z,99139.27
2023-03-19T21:25:59.956Z,99141.32
2023-03-19T21:32:01.559Z,99142.82
2023-03-19T21:38:03.101Z,99142.65
2023-03-19T21:44:13.601Z,99144.16
2023-03-19T21:50:17.600Z,99144.20
2023-03-19T21:56:34.767Z,99145.66
2023-03-19T22:02:43.464Z,99143.65
2023-03-19T22:08:47.473Z,99142.95
2023-03-19T22:14:51.485Z,99143.19
2023-03-19T22:20:53.941Z,99140.54
2023-03-19T22:27:01.135Z,99136.12
2023-03-19T22:33:14.053Z,99134.52
2023-03-19T22:39:18.060Z,99132.26
2023-03-19T22:45:29.806Z,99131.99
2023-03-19T22:51:31.555Z,99129.83
2023-03-19T22:57:33.120Z,99133.14
2023-03-19T23:03:35.054Z,99133.45
2023-03-19T23:09:37.162Z,99138.10
2023-03-19T23:15:39.193Z,99140.11
2023-03-19T23:21:41.150Z,99135.61
2023-03-19T23:27:43.368Z,99134.42
2023-03-19T23:33:48.025Z,99129.43
2023-03-19T23:39:49.462Z,99124.70
2023-03-19T23:45:51.779Z,99124.40
2023-03-19T23:51:53.381Z,99123.27
2023-03-19T23:57:55.994Z,99121.01
